FW0525 Weather Reports


time (UTC)temp
C
wind
direction
speed
KPH
gust
KPH
rain 1hr
cm
rain 24hr
cm
rain mn
cm
humidity
%
barometer
mb
20220627215105 31 96 6.4 17.7 0.00 2.54 0.03 78 1016.4
20220627214559 30 68 6.4 17.7 0.00 2.54 0.03 78 1016.3
20220627214054 30 46 6.4 17.7 0.00 2.54 0.03 78 1016.4
20220627213554 31 41 8.0 20.9 0.00 2.54 0.03 78 1016.4
20220627213037 31 86 8.0 20.9 0.00 2.54 0.03 77 1016.1
20220627212533 31 143 6.4 16.1 0.00 2.54 0.03 77 1016.1
20220627212026 31 89 8.0 17.7 0.00 2.54 0.03 77 1016.0
20220627211520 31 112 8.0 17.7 0.00 2.54 0.03 77 1016.2
20220627211014 31 65 8.0 17.7 0.00 2.54 0.03 77 1016.2
20220627210508 31 91 6.4 12.9 0.00 2.54 0.03 77 1016.4
20220627210001 31 94 6.4 12.9 0.00 2.54 0.03 76 1016.4
20220627205456 31 96 6.4 19.3 0.00 2.54 0.03 75 1016.4
20220627204951 31 120 8.0 19.3 0.00 2.54 0.03 75 1016.4
20220627204445 31 59 8.0 16.1 0.00 2.54 0.03 76 1016.5
20220627203939 31 58 6.4 16.1 0.00 2.54 0.03 76 1016.5
20220627203433 31 75 6.4 16.1 0.00 2.54 0.03 75 1016.5
20220627202926 31 109 6.4 12.9 0.00 2.54 0.03 76 1016.6
20220627202423 31 152 6.4 16.1 0.00 2.54 0.03 74 1016.6
20220627201914 31 88 8.0 19.3 0.00 2.54 0.03 76 1016.6
20220627201408 31 70 8.0 19.3 0.00 2.54 0.03 74 1016.6
20220627200902 31 139 8.0 19.3 0.00 2.54 0.03 75 1016.5
20220627200358 31 72 6.4 19.3 0.00 2.54 0.03 73 1016.6
20220627195849 32 53 4.8 17.7 0.00 2.54 0.03 73 1016.6
20220627195345 32 44 6.4 17.7 0.00 2.54 0.03 75 1016.8
20220627194837 32 111 6.4 16.1 0.00 2.54 0.03 74 1016.7
20220627194332 32 65 6.4 16.1 0.00 2.54 0.03 75 1016.7
20220627193828 32 60 6.4 16.1 0.00 2.54 0.03 73 1016.9
20220627193319 32 120 4.8 16.1 0.00 2.54 0.03 73 1016.9
20220627192814 32 51 4.8 14.5 0.00 2.54 0.03 72 1017.0
20220627192311 32 115 6.4 14.5 0.00 2.54 0.03 72 1016.9
20220627191801 32 53 6.4 14.5 0.00 2.54 0.03 73 1016.8
20220627191256 32 92 6.4 14.5 0.00 2.54 0.03 72 1016.9
20220627190749 32 58 6.4 14.5 0.00 2.54 0.03 72 1016.9
20220627190247 32 77 4.8 14.5 0.00 2.54 0.03 72 1016.9
20220627185748 32 91 4.8 14.5 0.00 2.54 0.03 71 1017.0
20220627185248 32 124 3.2 12.9 0.00 2.54 0.03 72 1017.1
20220627184749 32 83 4.8 17.7 0.00 2.54 0.03 73 1017.0
20220627184249 32 111 4.8 17.7 0.00 2.54 0.03 75 1017.1
20220627183750 31 89 4.8 17.7 0.00 2.54 0.03 76 1017.1
20220627183247 31 143 6.4 17.7 0.00 2.54 0.03 75 1017.1
20220627182748 32 89 4.8 12.9 0.00 2.54 0.03 73 1017.0
20220627182248 32 32 4.8 12.9 0.00 2.54 0.03 75 1017.1
20220627181749 32 207 6.4 20.9 0.00 2.54 0.03 75 1017.1
20220627181248 31 105 6.4 20.9 0.00 2.54 0.03 77 1017.0
20220627180743 31 86 6.4 16.1 0.00 2.54 0.03 76 1017.2
20220627180243 32 68 4.8 16.1 0.00 2.54 0.03 75 1017.4
20220627175745 32 80 4.8 12.9 0.00 2.54 0.03 76 1017.5
20220627175243 31 120 4.8 12.9 0.00 2.54 0.03 76 1017.4
20220627174745 31 143 4.8 12.9 0.00 2.54 0.03 77 1017.4
20220627174243 31 46 4.8 14.5 0.00 2.54 0.03 76 1017.5
20220627173745 32 104 4.8 14.5 0.00 2.54 0.03 77 1017.5
20220627173244 32 89 4.8 17.7 0.00 2.54 0.03 75 1017.6
20220627172743 31 148 4.8 17.7 0.00 2.54 0.03 77 1017.7
20220627172248 31 96 4.8 16.1 0.00 2.54 0.03 75 1017.7
20220627171742 32 75 4.8 14.5 0.00 2.54 0.03 76 1017.8
20220627171243 31 106 6.4 17.7 0.00 2.54 0.03 77 1017.8
20220627170746 32 51 4.8 17.7 0.00 2.54 0.03 76 1018.0
20220627170245 32 67 3.2 12.9 0.00 2.54 0.03 73 1018.0
20220627165743 32 91 1.6 9.7 0.00 2.54 0.03 73 1018.0
20220627165245 32 59 1.6 9.7 0.00 2.54 0.03 72 1018.1
20220627164743 31 131 3.2 9.7 0.00 2.54 0.03 69 1018.2
20220627164243 31 120 3.2 8.0 0.00 2.54 0.03 71 1018.3
20220627163737 31 134 1.6 8.0 0.00 2.54 0.03 76 1018.3
20220627163230 31 104 1.6 6.4 0.00 2.54 0.03 78 1018.5
20220627162725 30 102 1.6 6.4 0.00 2.54 0.03 79 1018.5
20220627162219 31 73 1.6 8.0 0.00 2.54 0.03 79 1018.7
20220627161714 30 110 1.6 8.0 0.00 2.54 0.03 79 1018.8
20220627161207 30 94 3.2 8.0 0.00 2.54 0.03 82 1019.0
20220627160707 30 85 1.6 6.4 0.00 2.54 0.03 82 1018.9
20220627160209 30 89 1.6 6.4 0.00 2.54 0.03 82 1019.0
20220627155710 29 167 1.6 6.4 0.00 2.54 0.03 85 1018.9
20220627155207 28 84 3.2 8.0 0.00 2.54 0.03 83 1018.9
20220627154707 28 127 4.8 9.7 0.00 2.57 0.03 85 1019.0
20220627154206 28 127 4.8 12.9 0.00 2.62 0.03 86 1019.0
20220627153705 28 32 3.2 12.9 0.00 2.67 0.03 84 1019.0
20220627153205 29 104 3.2 11.3 0.00 3.02 0.03 87 1018.8
20220627152707 29 88 3.2 11.3 0.00 4.01 0.03 82 1019.0
20220627152207 30 97 1.6 8.0 0.00 4.72 0.03 81 1018.9
20220627151709 30 79 0.0 6.4 0.00 5.82 0.03 82 1018.8
20220627151205 30 242 0.0 6.4 0.00 7.14 0.03 80 1018.6
20220627150708 31 134 0.0 6.4 0.00 7.70 0.03 78 1018.6
20220627150205 31 144 1.6 6.4 0.00 8.23 0.03 76 1018.5
20220627145706 31 116 0.0 3.2 0.00 8.48 0.03 77 1018.4
20220627145206 31 243 0.0 1.6 0.00 8.74 0.03 77 1018.4
20220627144702 31 46 1.6 8.0 0.00 8.81 0.03 78 1018.4
20220627144154 31 286 1.6 8.0 0.00 8.89 0.03 76 1018.4
20220627143649 31 171 0.0 4.8 0.00 9.30 0.03 78 1018.3
20220627143142 31 245 0.0 3.2 0.00 9.45 0.03 81 1018.3
20220627142635 31 229 0.0 3.2 0.00 9.45 0.03 81 1018.4
20220627142133 30 207 1.6 8.0 0.00 9.45 0.03 84 1018.3
20220627141622 29 89 1.6 8.0 0.00 9.45 0.03 83 1018.2
20220627141117 29 70 1.6 6.4 0.00 9.45 0.03 85 1018.1
20220627140611 29 91 0.0 6.4 0.00 9.45 0.03 84 1018.1
20220627140106 29 218 0.0 6.4 0.00 9.45 0.03 86 1018.2
20220627135558 28 120 0.0 1.6 0.00 9.45 0.03 91 1018.1
20220627135054 28 235 0.0 3.2 0.00 9.45 0.03 90 1018.2
20220627134548 28 229 1.6 6.4 0.00 9.45 0.03 91 1018.1
20220627134044 28 169 1.6 6.4 0.00 9.45 0.03 91 1018.2
20220627133534 28 86 0.0 4.8 0.00 9.45 0.03 92 1018.2
20220627133030 28 145 1.6 4.8 0.00 9.45 0.03 91 1018.3
20220627132524 28 127 0.0 4.8 0.00 9.45 0.03 91 1018.3
20220627132017 28 133 0.0 3.2 0.00 9.45 0.03 92 1018.2
20220627131515 28 260 1.6 4.8 0.00 9.45 0.03 92 1018.1
20220627131009 28 87 1.6 4.8 0.00 9.45 0.03 92 1018.1
20220627130511 28 144 0.0 3.2 0.00 9.45 0.03 94 1018.1
20220627125952 27 124 0.0 3.2 0.00 9.45 0.03 95 1018.1
20220627125449 27 142 0.0 4.8 0.00 9.45 0.03 96 1018.1
20220627124941 27 129 1.6 4.8 0.00 9.45 0.03 96 1018.0
20220627124439 27 143 0.0 6.4 0.00 9.45 0.03 97 1017.9
20220627123928 27 172 0.0 3.2 0.00 9.45 0.03 97 1017.9
20220627123423 27 157 0.0 1.6 0.00 9.45 0.03 98 1017.9
20220627122920 26 131 0.0 1.6 0.00 9.45 0.03 98 1017.8
20220627122410 26 71 0.0 0.0 0.00 9.45 0.03 98 1017.8
20220627121908 26 71 0.0 0.0 0.00 9.45 0.03 99 1017.7
20220627121359 26 68 0.0 0.0 0.00 9.45 0.03 99 1017.7
20220627120852 26 68 0.0 0.0 0.00 9.45 0.03 99 1017.7
20220627120348 26 60 0.0 0.0 0.00 9.45 0.03 99 1017.6
20220627115840 25 60 0.0 0.0 0.00 9.45 0.03 99 1017.5
20220627115335 25 60 0.0 0.0 0.00 9.45 0.03 99 1017.4
20220627114829 25 60 0.0 0.0 0.03 9.45 0.03 99 1017.4
20220627114322 24 60 0.0 0.0 0.03 9.45 0.03 99 1017.3
20220627113816 24 60 0.0 0.0 0.03 9.45 0.03 99 1017.3
20220627113310 25 60 0.0 0.0 0.03 9.45 0.03 99 1017.3
20220627112806 25 60 0.0 0.0 0.03 9.45 0.03 99 1017.3
20220627112259 24 60 0.0 0.0 0.03 9.45 0.03 99 1017.3
20220627111752 23 60 0.0 0.0 0.03 9.45 0.03 99 1017.3
20220627111253 23 60 0.0 0.0 0.03 9.45 0.03 99 1017.3
20220627110756 23 60 0.0 0.0 0.03 9.45 0.03 99 1017.2
20220627110250 23 60 0.0 0.0 0.03 9.45 0.03 99 1017.1
20220627105747 22 60 0.0 0.0 0.03 9.45 0.03 99 1017.1
20220627105245 22 60 0.0 0.0 0.03 9.45 0.03 99 1017.1
20220627104742 22 60 0.0 0.0 0.00 9.42 0.00 99 1017.0
20220627104240 22 60 0.0 0.0 0.00 9.42 0.00 99 1017.0
20220627103740 22 60 0.0 0.0 0.00 9.42 0.00 99 1017.0
20220627103241 22 60 0.0 0.0 0.00 9.42 0.00 99 1017.0
20220627102741 22 60 0.0 0.0 0.00 9.42 0.00 99 1016.9
20220627102237 22 60 0.0 0.0 0.00 9.42 0.00 99 1016.9
20220627101735 22 60 0.0 0.0 0.00 9.42 0.00 99 1017.0
20220627101232 22 60 0.0 0.0 0.00 9.42 0.00 99 1016.9
20220627100730 22 60 0.0 0.0 0.00 9.42 0.00 99 1016.8
20220627100228 22 60 0.0 0.0 0.00 9.42 0.00 99 1016.8
20220627095730 22 60 0.0 0.0 0.00 9.42 0.00 99 1016.6
20220627095229 22 60 0.0 0.0 0.00 9.42 0.00 99 1016.6
20220627094727 22 60 0.0 0.0 0.00 9.42 0.00 99 1016.6
20220627094225 22 60 0.0 0.0 0.00 9.42 0.00 99 1016.5
20220627093724 22 60 0.0 0.0 0.00 9.42 0.00 99 1016.5
20220627093224 22 60 0.0 0.0 0.00 9.42 0.00 99 1016.4
20220627092720 22 60 0.0 0.0 0.00 9.42 0.00 99 1016.5
20220627092218 22 60 0.0 0.0 0.00 9.42 0.00 99 1016.4
20220627091718 22 60 0.0 0.0 0.00 9.42 0.00 99 1016.4
20220627091218 22 60 0.0 0.0 0.00 9.42 0.00 99 1016.5
20220627090722 22 60 0.0 0.0 0.00 9.42 0.00 99 1016.4
20220627090218 23 60 0.0 0.0 0.00 9.42 0.00 99 1016.5
20220627085720 23 60 0.0 0.0 0.00 9.42 0.00 99 1016.5
20220627085219 23 60 0.0 0.0 0.00 9.42 0.00 99 1016.5
20220627084720 23 60 0.0 0.0 0.00 9.42 0.00 99 1016.4
20220627084218 23 60 0.0 0.0 0.00 9.42 0.00 99 1016.5
20220627083714 23 60 0.0 0.0 0.00 9.42 0.00 99 1016.5
20220627083215 23 60 0.0 0.0 0.00 9.42 0.00 99 1016.6
20220627082715 23 60 0.0 0.0 0.00 9.42 0.00 99 1016.5
20220627082218 23 60 0.0 0.0 0.00 9.42 0.00 99 1016.6
20220627081715 23 60 0.0 0.0 0.00 9.42 0.00 99 1016.5
20220627081214 23 60 0.0 0.0 0.00 9.42 0.00 99 1016.5
20220627080720 23 60 0.0 0.0 0.00 9.42 0.00 99 1016.5
20220627080214 23 60 0.0 0.0 0.00 9.42 0.00 99 1016.6
20220627075712 23 60 0.0 0.0 0.00 9.42 0.00 99 1016.6
20220627075212 23 60 0.0 0.0 0.00 9.42 0.00 99 1016.6
20220627074712 23 60 0.0 0.0 0.00 9.42 0.00 99 1016.8
20220627074217 23 60 0.0 0.0 0.00 9.42 0.00 99 1016.8
20220627073712 23 60 0.0 0.0 0.00 9.42 0.00 99 1016.8
20220627073217 23 60 0.0 0.0 0.00 9.42 0.00 99 1016.9
20220627072712 23 60 0.0 0.0 0.00 9.42 0.00 99 1016.8
20220627072212 23 60 0.0 0.0 0.00 9.42 0.00 99 1016.9
20220627071714 23 60 0.0 0.0 0.00 9.42 0.00 99 1016.9
20220627071215 23 60 0.0 0.0 0.00 9.42 0.00 99 1016.9
20220627070713 23 60 0.0 0.0 0.00 9.42 0.00 99 1017.1
20220627070209 23 60 0.0 0.0 0.00 9.42 0.00 99 1017.2
20220627065716 23 60 0.0 0.0 0.00 9.42 0.00 99 1017.2
20220627065203 23 60 0.0 0.0 0.00 9.42 0.00 99 1017.3
20220627064703 23 60 0.0 0.0 0.00 9.42 0.00 99 1017.4
20220627064155 23 60 0.0 0.0 0.00 9.42 0.00 99 1017.4
20220627063646 23 60 0.0 0.0 0.00 9.42 0.00 99 1017.4
20220627063141 23 60 0.0 0.0 0.00 9.42 0.00 99 1017.5
20220627062634 23 60 0.0 0.0 0.00 9.42 0.00 99 1017.5
20220627062130 23 60 0.0 0.0 0.00 9.42 0.00 98 1017.5
20220627061120 23 60 0.0 0.0 0.00 9.42 0.00 98 1017.6
20220627060610 23 60 0.0 0.0 0.00 9.42 0.00 98 1017.6
20220627060102 22 60 0.0 0.0 0.00 9.42 0.00 98 1017.7
20220627055557 23 60 0.0 0.0 0.00 9.42 0.00 98 1017.9
20220627055049 23 60 0.0 0.0 0.00 9.42 0.00 98 1017.9
20220627054556 22 60 0.0 0.0 0.00 9.42 0.00 98 1017.9
20220627054037 22 60 0.0 0.0 0.00 9.42 0.00 98 1018.0
20220627053535 22 60 0.0 0.0 0.00 9.42 0.00 98 1018.0
20220627053028 23 60 0.0 0.0 0.00 9.42 0.00 98 1018.1
20220627052523 23 60 0.0 0.0 0.00 9.42 0.00 98 1018.2
20220627052014 23 60 0.0 0.0 0.00 9.42 0.00 98 1018.3
20220627051508 22 60 0.0 0.0 0.00 9.42 0.00 98 1018.6
20220627051005 22 60 0.0 0.0 0.00 9.42 0.00 98 1018.6
20220627050456 22 60 0.0 0.0 0.00 9.42 0.00 98 1018.5
20220627045953 23 60 0.0 0.0 0.00 9.42 0.00 98 1018.7
20220627045444 22 58 0.0 0.0 0.00 9.42 0.00 98 1018.7
20220627044937 22 58 0.0 0.0 0.03 9.42 0.00 98 1018.7
20220627044431 22 58 0.0 0.0 0.05 9.42 0.00 98 1018.9
20220627043925 22 58 0.0 0.0 0.08 9.42 0.00 98 1018.9
20220627043425 22 58 0.0 0.0 0.08 9.42 0.00 98 1018.9
20220627042925 22 58 0.0 1.6 0.10 9.42 0.00 98 1019.1
20220627042422 22 58 1.6 3.2 0.10 9.42 0.00 98 1019.1
20220627041919 22 59 0.0 3.2 0.10 9.42 0.00 98 1019.2
20220627041418 22 235 0.0 0.0 0.10 9.42 0.00 98 1019.1
20220627040917 22 235 0.0 3.2 0.10 9.42 0.00 98 1019.1
20220627040418 22 276 0.0 3.2 0.10 9.42 0.00 98 1018.9
20220627035914 22 239 0.0 3.2 0.10 9.42 9.42 98 1019.1
20220627035418 22 239 0.0 3.2 0.10 9.42 9.42 98 1019.0
20220627034915 22 316 0.0 0.0 0.08 9.40 9.40 98 1019.3
20220627034417 22 316 0.0 0.0 0.05 9.37 9.37 98 1019.2
20220627033915 22 316 0.0 0.0 0.03 9.35 9.35 98 1019.3
20220627033416 22 316 0.0 0.0 0.03 9.35 9.35 98 1019.1
20220627032914 22 55 0.0 1.6 0.00 9.32 9.32 98 1019.1
20220627032419 22 69 0.0 3.2 0.00 9.32 9.32 98 1019.2
20220627031919 22 18 0.0 3.2 0.00 9.32 9.32 98 1019.0
20220627031418 22 10 0.0 1.6 0.00 9.32 9.32 98 1018.9
20220627030916 22 10 0.0 1.6 0.00 9.32 9.32 98 1019.0
20220627030408 22 11 0.0 0.0 0.00 9.32 9.32 98 1019.0
20220627025902 22 11 0.0 0.0 0.00 9.32 9.32 98 1019.0
20220627024904 22 11 0.0 1.6 0.00 9.32 9.32 98 1019.1
20220627024402 22 295 0.0 0.0 0.00 9.32 9.32 97 1019.1
20220627023903 22 295 0.0 1.6 0.05 9.32 9.32 98 1019.0
20220627023404 22 296 0.0 1.6 0.18 9.32 9.32 98 1018.8
20220627022908 22 85 0.0 0.0 0.46 9.32 9.32 97 1018.7
20220627022406 22 85 0.0 0.0 0.71 9.32 9.32 97 1018.4
20220627021905 22 85 0.0 0.0 0.91 9.32 9.32 97 1018.3
20220627021404 22 85 0.0 0.0 1.37 9.32 9.32 97 1018.0
20220627020905 22 85 0.0 0.0 1.63 9.32 9.32 97 1017.8
20220627020359 22 85 0.0 0.0 1.68 9.32 9.32 97 1018.0
20220627015859 22 85 0.0 0.0 1.68 9.32 9.32 97 1017.8
20220627015358 22 85 0.0 0.0 1.68 9.32 9.32 97 1017.9
20220627014858 22 85 0.0 0.0 1.73 9.32 9.32 97 1018.1
20220627014359 22 85 0.0 0.0 1.75 9.32 9.32 97 1018.2
20220627013858 22 84 0.0 1.6 1.80 9.27 9.30 97 1018.2
20220627013359 22 84 0.0 1.6 1.68 9.14 9.14 97 1018.2
20220627012858 22 122 0.0 1.6 1.42 8.86 8.89 97 1018.5
20220627012400 22 101 1.6 9.7 1.17 8.61 8.66 97 1018.6
20220627011859 22 119 3.2 19.3 0.97 8.41 8.43 96 1018.7
20220627011358 23 136 4.8 27.4 0.51 7.95 8.05 96 1018.6
20220627010900 23 201 1.6 27.4 0.25 7.70 7.70 97 1018.3
20220627010358 23 258 0.0 3.2 0.20 7.65 7.65 97 1018.2
20220627005858 23 229 0.0 1.6 0.30 7.65 7.65 97 1018.2
20220627005401 23 229 0.0 3.2 0.41 7.65 7.65 97 1017.8
20220627004856 23 242 0.0 4.8 0.58 7.59 7.62 97 1017.9
20220627004359 23 39 1.6 6.4 0.66 7.57 7.57 97 1017.9
20220627003856 23 240 1.6 6.4 0.56 7.47 7.47 97 1017.7
20220627003349 23 30 1.6 4.8 0.56 7.47 7.47 96 1017.8
20220627002843 23 209 0.0 3.2 0.53 7.44 7.44 96 1017.8
20220627002340 23 237 0.0 1.6 0.53 7.44 7.44 96 1017.6
20220627001832 23 79 0.0 0.0 0.53 7.44 7.44 96 1017.4
20220627001325 23 79 0.0 1.6 0.53 7.44 7.44 95 1017.4
20220627000822 23 79 0.0 6.4 0.53 7.44 7.44 95 1017.3
20220627000313 23 79 1.6 9.7 0.53 7.44 7.44 94 1017.2
20220626235810 23 49 4.8 14.5 0.43 7.34 7.34 94 1017.4
20220626235306 23 63 8.0 24.1 0.30 7.21 7.24 92 1017.4
20220626234804 25 116 9.7 24.1 0.05 6.96 6.99 89 1017.6
20220626234305 26 77 3.2 20.9 0.00 6.91 6.91 88 1017.5
20220626233804 26 64 0.0 3.2 0.00 6.91 6.91 91 1017.2
20220626233305 27 23 0.0 6.4 0.00 6.91 6.91 90 1017.0
20220626232817 27 1 1.6 9.7 0.00 6.91 6.91 89 1017.2
20220626232307 27 79 4.8 17.7 0.00 6.91 6.91 86 1017.1
20220626231808 28 72 3.2 17.7 0.00 6.91 6.91 87 1017.2
20220626231306 28 118 3.2 9.7 0.00 6.91 6.91 86 1017.0
20220626230802 28 95 4.8 16.1 0.00 6.91 6.91 86 1016.9
20220626230316 28 82 6.4 16.1 0.00 6.91 6.91 85 1016.8
20220626225803 28 73 4.8 12.9 0.00 6.91 6.91 85 1016.6
20220626225305 28 79 4.8 11.3 0.00 6.91 6.91 84 1016.5
20220626224802 28 111 4.8 9.7 0.00 6.91 6.91 85 1016.5
20220626224305 28 92 3.2 12.9 0.00 6.91 6.91 84 1016.4
20220626223803 28 58 4.8 14.5 0.00 6.91 6.91 83 1016.5
20220626223257 28 93 6.4 16.1 0.00 6.91 6.91 84 1016.6
20220626222750 28 70 6.4 16.1 0.00 6.91 6.91 84 1016.6
20220626222243 28 60 6.4 14.5 0.00 6.91 6.91 84 1016.9
20220626221737 28 77 6.4 14.5 0.00 6.91 6.91 84 1016.8
20220626221234 28 61 8.0 24.1 0.00 6.91 6.91 83 1016.8
20220626220725 29 84 8.0 24.1 0.00 6.91 6.91 82 1016.8
20220626220232 29 66 8.0 16.1 0.00 6.91 6.91 83 1016.8
20220626215715 29 75 8.0 17.7 0.00 6.91 6.91 83 1016.8